Time;durP1;ratioP1;P1;durP2;ratioP2;P2;SDS_P1;SDS_P2;PMS_P1;PMS_P2;Temp;Humidity;BMP_temperature;BMP_pressure;BME280_temperature;BME280_humidity;BME280_pressure;Samples;Min_cycle;Max_cycle;Signal;HPM_P1;HPM_P2
2022/01/10 00:00:22;;;;;;;23.40;7.45;;;;;;;2.40;100.00;100350.39;1496697;94;21151;-92
2022/01/10 00:02:53;;;;;;;23.83;7.50;;;;;;;2.38;100.00;100350.62;1495176;94;21744;-93
2022/01/10 00:05:19;;;;;;;20.32;6.83;;;;;;;2.38;100.00;100351.95;1491497;95;21565;-91
2022/01/10 00:07:49;;;;;;;22.48;7.40;;;;;;;2.38;100.00;100349.78;1491222;94;21221;-91
2022/01/10 00:10:17;;;;;;;22.93;6.80;;;;;;;2.38;100.00;100354.61;1490731;95;21708;-94
2022/01/10 00:12:43;;;;;;;17.92;6.80;;;;;;;2.37;100.00;100352.95;1490592;95;22210;-91
2022/01/10 00:15:11;;;;;;;18.60;6.67;;;;;;;2.37;100.00;100352.15;1491277;95;21167;-92
2022/01/10 00:17:40;;;;;;;24.57;8.00;;;;;;;2.37;100.00;100347.64;1491624;95;21570;-95
2022/01/10 00:20:10;;;;;;;25.50;8.80;;;;;;;2.38;100.00;100353.77;1491151;95;21176;-91
2022/01/10 00:22:40;;;;;;;21.02;7.12;;;;;;;2.36;100.00;100344.69;1491164;95;21098;-94
2022/01/10 00:25:07;;;;;;;20.75;7.00;;;;;;;2.40;100.00;100354.38;1499954;95;21173;-92
2022/01/10 00:27:34;;;;;;;22.45;8.45;;;;;;;2.41;100.00;100354.67;1470218;96;21172;-92
2022/01/10 00:29:59;;;;;;;27.77;9.30;;;;;;;2.40;100.00;100355.71;1470482;97;21101;-92
2022/01/10 00:32:26;;;;;;;29.48;9.73;;;;;;;2.39;100.00;100354.09;1470264;97;21723;-92
2022/01/10 00:34:52;;;;;;;26.45;9.75;;;;;;;2.42;100.00;100353.66;1452717;97;21086;-91
2022/01/10 00:37:18;;;;;;;30.10;9.95;;;;;;;2.43;100.00;100354.77;1470372;97;21123;-92
2022/01/10 00:39:47;;;;;;;21.57;8.08;;;;;;;2.45;100.00;100354.05;1470029;97;21938;-93
2022/01/10 00:42:13;;;;;;;22.82;7.47;;;;;;;2.46;100.00;100357.52;1470005;96;21057;-92
2022/01/10 00:44:45;;;;;;;22.40;8.20;;;;;;;2.46;100.00;100349.55;1470449;97;21661;-92
2022/01/10 00:47:07;;;;;;;25.12;8.63;;;;;;;2.44;100.00;100346.27;1484046;95;21142;-93
2022/01/10 00:49:33;;;;;;;22.98;8.10;;;;;;;2.45;100.00;100344.74;1508127;95;21194;-92
2022/01/10 00:52:00;;;;;;;26.75;9.20;;;;;;;2.41;100.00;100342.22;1531501;90;21141;-92
2022/01/10 00:54:26;;;;;;;26.20;7.62;;;;;;;2.40;100.00;100336.58;1593274;90;21121;-92
2022/01/10 00:56:52;;;;;;;18.82;7.40;;;;;;;2.42;100.00;100335.05;1593169;90;21050;-92
2022/01/10 00:59:18;;;;;;;21.15;8.28;;;;;;;2.42;100.00;100329.21;1592992;90;21085;-92
2022/01/10 01:01:44;;;;;;;23.77;7.45;;;;;;;2.44;100.00;100331.64;1572475;90;21122;-91
2022/01/10 01:04:11;;;;;;;22.77;7.53;;;;;;;2.41;100.00;100324.94;1591585;89;21171;-91
2022/01/10 01:06:37;;;;;;;25.75;7.62;;;;;;;2.41;100.00;100316.11;1590885;90;21137;-92
2022/01/10 01:09:08;;;;;;;23.45;8.00;;;;;;;2.41;100.00;100315.63;1591293;90;21131;-91
2022/01/10 01:14:23;;;;;;;16.65;6.37;;;;;;;2.42;100.00;100318.58;1590769;89;21095;-93
2022/01/10 01:24:27;;;;;;;17.90;6.28;;;;;;;2.44;100.00;100315.69;1556703;91;21615;-92
2022/01/10 01:26:54;;;;;;;19.45;7.03;;;;;;;2.43;100.00;100312.22;1556668;91;21201;-92
2022/01/10 01:29:24;;;;;;;18.87;6.67;;;;;;;2.44;100.00;100325.84;1557357;89;21507;-93
2022/01/10 01:31:54;;;;;;;17.67;6.22;;;;;;;2.45;100.00;100328.78;1581031;89;21066;-91
2022/01/10 01:34:23;;;;;;;15.50;5.85;;;;;;;2.49;100.00;100334.48;1570063;91;21091;-92
2022/01/10 01:36:56;;;;;;;18.15;6.05;;;;;;;2.53;100.00;100336.20;1570179;91;21048;-92
2022/01/10 01:39:25;;;;;;;18.60;5.73;;;;;;;2.54;100.00;100337.33;1570341;90;22470;-91
2022/01/10 01:42:02;;;;;;;22.25;6.60;;;;;;;2.56;100.00;100335.77;1570304;91;21174;-91
2022/01/10 01:44:26;;;;;;;22.02;6.62;;;;;;;2.54;100.00;100324.03;1567044;91;21064;-91
2022/01/10 01:46:53;;;;;;;19.12;6.22;;;;;;;2.55;100.00;100332.83;1570471;91;21584;-93
2022/01/10 01:49:19;;;;;;;15.98;6.50;;;;;;;2.53;100.00;100333.05;1570386;91;21099;-92
2022/01/10 01:51:45;;;;;;;17.75;6.42;;;;;;;2.52;100.00;100330.59;1554201;89;21599;-93
2022/01/10 01:54:14;;;;;;;18.05;6.10;;;;;;;2.51;100.00;100325.80;1602569;89;21076;-92
2022/01/10 01:56:40;;;;;;;16.40;5.90;;;;;;;2.50;100.00;100318.34;1602297;89;21125;-92
2022/01/10 01:59:09;;;;;;;15.20;5.75;;;;;;;2.50;100.00;100320.18;1602488;89;21804;-92
2022/01/10 02:01:35;;;;;;;19.57;5.80;;;;;;;2.48;100.00;100319.05;1581459;89;21040;-91
2022/01/10 02:04:01;;;;;;;16.45;6.55;;;;;;;2.46;100.00;100313.12;1600078;88;21136;-91
2022/01/10 02:06:27;;;;;;;16.02;5.95;;;;;;;2.43;100.00;100314.87;1605028;89;21084;-91
2022/01/10 02:08:53;;;;;;;16.93;5.75;;;;;;;2.40;100.00;100308.66;1604752;89;21617;-91
2022/01/10 02:11:19;;;;;;;18.80;5.83;;;;;;;2.40;100.00;100305.19;1604890;89;21033;-92
2022/01/10 02:13:45;;;;;;;19.92;6.60;;;;;;;2.37;100.00;100306.42;1605065;89;21104;-91
2022/01/10 02:16:17;;;;;;;11.97;5.30;;;;;;;2.37;100.00;100298.45;1605344;89;21013;-91
2022/01/10 02:18:39;;;;;;;17.17;5.55;;;;;;;2.35;100.00;100307.14;1601576;89;21696;-91
2022/01/10 02:21:08;;;;;;;17.12;6.10;;;;;;;2.35;100.00;100301.02;1605174;89;20926;-91
2022/01/10 02:23:34;;;;;;;19.95;6.75;;;;;;;2.33;100.00;100303.91;1604443;88;21018;-91
2022/01/10 02:26:00;;;;;;;20.55;6.40;;;;;;;2.31;100.00;100300.63;1604651;89;21100;-91
2022/01/10 02:28:26;;;;;;;15.45;5.70;;;;;;;2.30;100.00;100289.70;1605164;89;21041;-91
2022/01/10 02:30:57;;;;;;;17.35;6.12;;;;;;;2.30;100.00;100288.89;1623433;86;21866;-92
2022/01/10 02:33:27;;;;;;;17.85;6.80;;;;;;;2.28;100.00;100291.23;1683032;85;21492;-92
2022/01/10 02:36:13;;;;;;;15.78;6.58;;;;;;;2.28;100.00;100293.89;1635869;86;21042;-92
2022/01/10 02:38:35;;;;;;;19.32;5.87;;;;;;;2.27;100.00;100292.27;1635249;86;21245;-91
2022/01/10 02:41:02;;;;;;;17.48;6.53;;;;;;;2.25;100.00;100289.00;1636406;87;21084;-92
2022/01/10 02:43:29;;;;;;;20.20;7.40;;;;;;;2.24;100.00;100294.55;1636185;87;22059;-91
2022/01/10 02:45:56;;;;;;;18.87;6.78;;;;;;;2.23;100.00;100294.22;1636138;87;21105;-94
2022/01/10 02:48:23;;;;;;;20.08;6.72;;;;;;;2.20;100.00;100294.65;1636558;87;21050;-90
2022/01/10 02:50:50;;;;;;;15.98;7.37;;;;;;;2.18;100.00;100287.42;1635991;87;21086;-92
2022/01/10 02:53:16;;;;;;;18.02;7.30;;;;;;;2.15;100.00;100289.98;1636240;87;21101;-90
2022/01/10 02:55:43;;;;;;;22.48;7.05;;;;;;;2.17;100.00;100294.55;1636247;87;21658;-91
2022/01/10 02:58:09;;;;;;;22.95;6.72;;;;;;;2.19;100.00;100299.16;1636027;87;21546;-91
2022/01/10 03:00:35;;;;;;;18.00;6.30;;;;;;;2.16;100.00;100300.91;1636392;87;21026;-92
2022/01/10 03:03:06;;;;;;;19.17;6.37;;;;;;;2.14;100.00;100308.79;1634782;86;21132;-92
2022/01/10 03:05:32;;;;;;;15.28;6.37;;;;;;;2.13;100.00;100307.98;1585700;87;21141;-91
2022/01/10 03:07:59;;;;;;;23.25;6.60;;;;;;;2.18;100.00;100315.33;1585535;89;21198;-91
2022/01/10 03:10:25;;;;;;;16.73;6.03;;;;;;;2.17;100.00;100317.15;1606193;88;21149;-90
2022/01/10 03:12:51;;;;;;;16.93;6.30;;;;;;;2.17;100.00;100320.33;1606699;87;21094;-91
2022/01/10 03:15:18;;;;;;;15.53;6.45;;;;;;;2.16;100.00;100313.39;1606415;88;21039;-91
2022/01/10 03:17:44;;;;;;;19.67;6.30;;;;;;;2.17;100.00;100318.48;1606657;88;20999;-94
2022/01/10 03:20:11;;;;;;;22.02;6.80;;;;;;;2.17;100.00;100321.14;1606649;88;21137;-91
2022/01/10 03:22:37;;;;;;;15.30;5.90;;;;;;;2.17;100.00;100320.33;1603339;88;21198;-92
2022/01/10 03:25:05;;;;;;;17.73;5.78;;;;;;;2.16;100.00;100322.17;1585573;89;21070;-91
2022/01/10 03:27:32;;;;;;;18.37;6.65;;;;;;;2.19;100.00;100324.92;1607023;88;21043;-92
2022/01/10 03:29:58;;;;;;;19.45;6.58;;;;;;;2.19;100.00;100329.72;1606503;88;21099;-92
2022/01/10 03:32:25;;;;;;;18.95;6.70;;;;;;;2.23;100.00;100340.23;1625956;84;21877;-93
2022/01/10 03:34:54;;;;;;;15.45;6.42;;;;;;;2.27;100.00;100351.28;1661148;86;21265;-92
2022/01/10 03:37:20;;;;;;;19.02;7.05;;;;;;;2.30;100.00;100352.70;1661546;86;21650;-93
2022/01/10 03:39:46;;;;;;;21.62;6.60;;;;;;;2.37;100.00;100358.80;1661377;86;21566;-92
2022/01/10 03:42:12;;;;;;;20.12;6.92;;;;;;;2.41;100.00;100358.66;1661268;86;21422;-92
2022/01/10 03:44:38;;;;;;;18.75;6.65;;;;;;;2.42;100.00;100361.64;1661363;86;21127;-94
2022/01/10 03:47:05;;;;;;;17.60;6.22;;;;;;;2.46;100.00;100357.52;1661189;86;20971;-92
2022/01/10 03:49:31;;;;;;;19.17;6.70;;;;;;;2.46;100.00;100363.65;1661342;86;20934;-91
2022/01/10 03:52:00;;;;;;;18.10;6.53;;;;;;;2.42;100.00;100360.31;1661421;86;21014;-92
2022/01/10 03:54:28;;;;;;;22.30;6.90;;;;;;;2.42;100.00;100366.96;1660911;86;21042;-92
2022/01/10 03:56:54;;;;;;;18.45;7.05;;;;;;;2.41;100.00;100371.47;1649486;86;21838;-93
2022/01/10 03:59:21;;;;;;;20.77;6.42;;;;;;;2.40;100.00;100374.33;1661461;84;21045;-93
2022/01/10 04:01:51;;;;;;;16.02;6.85;;;;;;;2.39;100.00;100367.39;1661323;86;21011;-96
2022/01/10 04:04:18;;;;;;;19.55;7.03;;;;;;;2.37;100.00;100361.45;1676234;83;21630;-96
2022/01/10 04:06:45;;;;;;;20.55;7.75;;;;;;;2.33;100.00;100366.91;1693074;84;21066;-96
2022/01/10 04:09:11;;;;;;;25.20;6.87;;;;;;;2.32;100.00;100360.74;1665345;84;21680;-96
2022/01/10 04:11:40;;;;;;;24.67;7.90;;;;;;;2.32;100.00;100362.08;1664623;86;21035;-96
2022/01/10 04:14:07;;;;;;;21.60;7.40;;;;;;;2.32;100.00;100367.91;1689761;84;21131;-96
2022/01/10 04:16:33;;;;;;;22.77;7.45;;;;;;;2.31;100.00;100368.95;1692986;83;21019;-96
2022/01/10 04:19:02;;;;;;;23.47;7.05;;;;;;;2.28;100.00;100370.98;1693587;84;20911;-96
2022/01/10 04:24:04;;;;;;;18.77;7.70;;;;;;;2.26;100.00;100381.53;1605137;88;21115;-96
2022/01/10 04:26:30;;;;;;;25.35;7.95;;;;;;;2.24;100.00;100379.09;1669916;86;21063;-96
2022/01/10 04:28:57;;;;;;;23.40;7.37;;;;;;;2.21;100.00;100380.03;1669847;86;21088;-96
2022/01/10 04:31:25;;;;;;;24.82;8.05;;;;;;;2.19;100.00;100384.73;1669851;86;21106;-94
2022/01/10 04:33:51;;;;;;;28.05;8.43;;;;;;;2.18;100.00;100386.59;1669397;84;21265;-94
2022/01/10 04:36:17;;;;;;;25.80;8.30;;;;;;;2.18;100.00;100391.91;1645681;86;21104;-94
2022/01/10 04:38:43;;;;;;;24.82;8.53;;;;;;;2.15;100.00;100385.67;1669595;86;20941;-93
2022/01/10 04:41:10;;;;;;;26.73;9.00;;;;;;;2.14;100.00;100384.54;1669273;84;20882;-93
2022/01/10 04:43:37;;;;;;;34.05;11.10;;;;;;;2.13;100.00;100386.91;1669204;86;21036;-93
2022/01/10 04:46:03;;;;;;;30.25;10.70;;;;;;;2.11;100.00;100391.61;1669033;84;21682;-92
2022/01/10 04:48:29;;;;;;;27.27;10.32;;;;;;;2.09;100.00;100389.17;1669144;86;20950;-93
2022/01/10 04:53:27;;;;;;;26.37;9.13;;;;;;;2.11;100.00;100403.56;1668893;86;21076;-92
2022/01/10 04:55:53;;;;;;;30.25;9.00;;;;;;;2.09;100.00;100399.80;1668855;86;21092;-91
2022/01/10 04:58:22;;;;;;;29.70;9.78;;;;;;;2.10;100.00;100414.72;1669123;86;21104;-92
2022/01/10 05:00:54;;;;;;;26.93;9.85;;;;;;;2.11;100.00;100421.66;1668778;86;21124;-92
2022/01/10 05:03:21;;;;;;;33.95;10.35;;;;;;;2.14;100.00;100423.08;1668870;84;21497;-91
2022/01/10 05:05:52;;;;;;;35.38;11.20;;;;;;;2.15;100.00;100426.87;1669120;86;21034;-92
2022/01/10 05:08:15;;;;;;;33.58;11.03;;;;;;;2.17;100.00;100428.80;1665280;84;21088;-91
2022/01/10 05:10:42;;;;;;;34.13;11.68;;;;;;;2.14;100.00;100428.40;1668978;84;21167;-90
2022/01/10 05:13:08;;;;;;;40.35;12.00;;;;;;;2.12;100.00;100428.62;1668872;84;21092;-90
2022/01/10 05:15:36;;;;;;;36.83;11.93;;;;;;;2.11;100.00;100426.97;1668867;86;20913;-90
2022/01/10 05:18:02;;;;;;;39.70;11.50;;;;;;;2.09;100.00;100423.73;1632630;86;21042;-90
2022/01/10 05:20:28;;;;;;;34.70;11.18;;;;;;;2.06;100.00;100425.47;1606639;89;21149;-89
2022/01/10 05:22:54;;;;;;;36.85;12.05;;;;;;;2.05;100.00;100427.80;1603629;87;21117;-89
2022/01/10 05:25:20;;;;;;;34.58;12.05;;;;;;;2.05;100.00;100430.46;1642803;87;21857;-90
2022/01/10 05:27:46;;;;;;;40.40;12.13;;;;;;;2.04;100.00;100428.84;1642994;87;21082;-90
2022/01/10 05:30:12;;;;;;;40.23;12.78;;;;;;;2.02;100.00;100423.72;1643762;87;21038;-89
2022/01/10 05:32:38;;;;;;;41.65;13.25;;;;;;;1.99;100.00;100424.65;1643110;87;20979;-90
2022/01/10 05:35:05;;;;;;;39.53;12.63;;;;;;;2.00;100.00;100435.09;1643018;87;21156;-91
2022/01/10 05:37:31;;;;;;;40.38;13.68;;;;;;;2.02;100.00;100434.34;1642990;87;21078;-91
2022/01/10 05:39:59;;;;;;;37.67;13.38;;;;;;;2.05;100.00;100433.13;1643146;87;21741;-91
2022/01/10 05:42:24;;;;;;;42.78;14.07;;;;;;;2.07;100.00;100434.26;1642770;87;21112;-90
2022/01/10 05:44:53;;;;;;;39.55;13.25;;;;;;;2.04;100.00;100435.48;1642928;87;20908;-91
2022/01/10 05:47:19;;;;;;;46.68;13.28;;;;;;;2.02;100.00;100438.33;1642800;87;21287;-90
2022/01/10 05:49:48;;;;;;;43.75;13.98;;;;;;;2.02;100.00;100442.32;1643075;87;21102;-92
2022/01/10 05:52:14;;;;;;;46.33;14.68;;;;;;;2.01;100.00;100440.70;1620951;87;21070;-91
2022/01/10 05:54:40;;;;;;;42.05;13.88;;;;;;;1.98;100.00;100439.78;1643242;87;21177;-90
2022/01/10 05:57:06;;;;;;;49.25;14.28;;;;;;;1.98;100.00;100445.09;1643108;87;20915;-91
2022/01/10 05:59:32;;;;;;;44.13;13.98;;;;;;;1.98;100.00;100442.95;1643225;87;21088;-92
2022/01/10 06:01:59;;;;;;;46.92;14.68;;;;;;;1.96;100.00;100440.49;1642692;87;21062;-90
2022/01/10 06:04:30;;;;;;;47.98;13.25;;;;;;;1.96;100.00;100443.67;1643196;87;21039;-90
2022/01/10 06:06:54;;;;;;;54.60;14.58;;;;;;;1.98;100.00;100445.61;1625002;87;21270;-91
2022/01/10 06:09:20;;;;;;;45.63;14.93;;;;;;;1.97;100.00;100443.96;1625336;88;20944;-90
2022/01/10 06:11:46;;;;;;;48.65;15.65;;;;;;;1.98;100.00;100452.26;1625250;88;21729;-91
2022/01/10 06:14:12;;;;;;;44.58;15.75;;;;;;;2.00;100.00;100452.36;1625408;88;21071;-91
2022/01/10 06:16:38;;;;;;;53.73;17.27;;;;;;;2.02;100.00;100452.14;1625635;88;20900;-91
2022/01/10 06:19:04;;;;;;;53.60;18.30;;;;;;;2.04;100.00;100450.10;1625364;88;21661;-91
2022/01/10 06:21:30;;;;;;;53.78;18.48;;;;;;;2.05;100.00;100455.19;1637401;86;20924;-90
2022/01/10 06:23:56;;;;;;;61.23;19.20;;;;;;;2.05;100.00;100453.86;1648237;87;21016;-91
2022/01/10 06:26:22;;;;;;;53.68;17.40;;;;;;;2.08;100.00;100458.47;1645130;87;21075;-90
2022/01/10 06:28:48;;;;;;;46.05;14.68;;;;;;;2.05;100.00;100453.86;1649214;87;21042;-91
2022/01/10 06:31:14;;;;;;;56.58;18.55;;;;;;;2.06;100.00;100461.34;1649014;87;21788;-91
2022/01/10 06:33:40;;;;;;;56.88;17.05;;;;;;;2.07;100.00;100458.17;1649137;87;21031;-90
2022/01/10 06:36:08;;;;;;;56.65;18.32;;;;;;;2.11;100.00;100464.18;1649189;87;21370;-89
2022/01/10 06:38:34;;;;;;;52.15;17.00;;;;;;;2.14;100.00;100465.09;1648680;86;21008;-89
2022/01/10 06:41:00;;;;;;;44.30;15.95;;;;;;;2.08;100.00;100449.98;1649039;87;21082;-90
2022/01/10 06:43:26;;;;;;;48.02;15.48;;;;;;;2.24;100.00;100474.80;1648973;87;20978;-90
2022/01/10 06:45:57;;;;;;;44.67;16.10;;;;;;;2.27;100.00;100477.05;1649312;86;20979;-90
2022/01/10 06:48:23;;;;;;;46.88;14.65;;;;;;;2.27;100.00;100478.38;1648944;87;21226;-89
2022/01/10 06:50:49;;;;;;;45.23;15.32;;;;;;;2.29;100.00;100482.14;1648840;87;21669;-90
2022/01/10 06:53:17;;;;;;;41.02;13.78;;;;;;;2.30;100.00;100483.80;1649365;87;20900;-90
2022/01/10 06:55:44;;;;;;;43.68;13.83;;;;;;;2.33;100.00;100490.02;1648937;87;21109;-89
2022/01/10 06:58:13;;;;;;;42.90;13.65;;;;;;;2.35;100.00;100488.47;1648973;87;21159;-90
2022/01/10 07:00:40;;;;;;;36.40;12.63;;;;;;;2.36;100.00;100489.61;1648963;87;21135;-90
2022/01/10 07:03:06;;;;;;;44.25;14.00;;;;;;;2.39;100.00;100489.70;1667444;83;21033;-90
2022/01/10 07:05:34;;;;;;;38.15;12.85;;;;;;;2.39;100.00;100497.16;1727651;82;21678;-89
2022/01/10 07:08:04;;;;;;;39.98;13.55;;;;;;;2.42;100.00;100502.58;1714721;83;21067;-89
2022/01/10 07:10:30;;;;;;;36.63;13.30;;;;;;;2.44;100.00;100492.53;1710834;83;21095;-89
2022/01/10 07:12:56;;;;;;;40.88;15.03;;;;;;;2.47;100.00;100490.78;1714705;83;21092;-90
2022/01/10 07:15:24;;;;;;;55.90;16.97;;;;;;;2.47;100.00;100489.45;1714219;83;21044;-89
2022/01/10 07:17:50;;;;;;;57.20;18.27;;;;;;;2.48;100.00;100492.44;1714499;83;21051;-89
2022/01/10 07:20:16;;;;;;;56.53;18.77;;;;;;;2.50;100.00;100491.20;1714815;83;20989;-89
2022/01/10 07:22:42;;;;;;;51.33;17.60;;;;;;;2.53;100.00;100490.47;1714255;82;21169;-90
2022/01/10 07:25:09;;;;;;;49.40;15.53;;;;;;;2.57;100.00;100487.70;1714146;83;21116;-89
2022/01/10 07:27:35;;;;;;;53.40;15.60;;;;;;;2.57;100.00;100495.17;1714033;83;21429;-91
2022/01/10 07:30:04;;;;;;;46.98;15.15;;;;;;;2.59;100.00;100489.62;1714361;83;21071;-89
2022/01/10 07:32:32;;;;;;;47.35;13.72;;;;;;;2.61;100.00;100483.07;1714018;83;21169;-89
2022/01/10 07:34:58;;;;;;;45.00;14.75;;;;;;;2.65;100.00;100482.16;1714062;83;21139;-89
2022/01/10 07:37:24;;;;;;;46.55;14.95;;;;;;;2.66;100.00;100488.59;1714403;82;21145;-89
2022/01/10 07:39:52;;;;;;;42.98;14.80;;;;;;;2.69;100.00;100494.00;1714244;83;21615;-90
2022/01/10 07:42:17;;;;;;;41.80;14.78;;;;;;;2.74;100.00;100495.53;1714264;83;21733;-90
2022/01/10 07:44:43;;;;;;;46.08;14.87;;;;;;;2.75;100.00;100498.48;1714381;83;20953;-89
2022/01/10 07:47:12;;;;;;;47.58;16.10;;;;;;;2.76;100.00;100503.28;1690481;83;20846;-89
2022/01/10 07:49:38;;;;;;;47.43;15.08;;;;;;;2.77;100.00;100502.28;1714406;83;21144;-90
2022/01/10 07:52:05;;;;;;;48.55;14.73;;;;;;;2.78;100.00;100497.25;1714824;83;21051;-90
2022/01/10 07:54:31;;;;;;;50.00;14.93;;;;;;;2.78;100.00;100498.58;1714429;82;21051;-91
2022/01/10 07:56:58;;;;;;;48.75;13.75;;;;;;;2.79;100.00;100490.89;1710202;83;20968;-90
2022/01/10 07:59:24;;;;;;;48.85;15.28;;;;;;;2.80;100.00;100496.02;1714186;83;21123;-90
2022/01/10 08:01:53;;;;;;;45.90;13.68;;;;;;;2.86;100.00;100491.70;1714647;83;21187;-90
2022/01/10 08:04:19;;;;;;;43.55;13.53;;;;;;;2.89;100.00;100496.08;1728693;81;21496;-90
2022/01/10 08:06:45;;;;;;;46.10;14.83;;;;;;;2.93;100.00;100499.13;1734531;82;20905;-90
2022/01/10 08:09:11;;;;;;;40.88;13.40;;;;;;;2.99;100.00;100494.28;1734171;82;21013;-90
2022/01/10 08:11:37;;;;;;;45.08;14.87;;;;;;;3.05;100.00;100496.61;1734409;82;20976;-91
2022/01/10 08:14:05;;;;;;;38.08;13.55;;;;;;;3.09;100.00;100491.99;1734405;82;21699;-91
2022/01/10 08:16:31;;;;;;;45.15;14.53;;;;;;;3.15;100.00;100494.32;1734185;82;21008;-92
2022/01/10 08:18:57;;;;;;;47.53;13.83;;;;;;;3.26;100.00;100498.94;1734632;82;20937;-92
2022/01/10 08:21:22;;;;;;;42.98;12.95;;;;;;;3.34;100.00;100497.36;1734475;82;20940;-91
2022/01/10 08:23:48;;;;;;;39.18;13.62;;;;;;;3.41;100.00;100491.50;1732885;82;21172;-92
2022/01/10 08:26:14;;;;;;;44.85;14.43;;;;;;;3.47;100.00;100487.16;1732341;82;21093;-92
2022/01/10 08:28:41;;;;;;;52.80;15.50;;;;;;;3.45;100.00;100487.07;1732217;82;21612;-94
2022/01/10 08:31:09;;;;;;;56.18;14.38;;;;;;;3.39;100.00;100479.42;1732034;82;21068;-93
2022/01/10 08:33:36;;;;;;;43.85;14.13;;;;;;;3.37;100.00;100477.48;1732398;82;21473;-93
2022/01/10 08:36:03;;;;;;;40.40;12.47;;;;;;;3.44;100.00;100478.76;1731858;81;21095;-92
2022/01/10 08:38:29;;;;;;;43.42;13.70;;;;;;;3.49;100.00;100476.27;1732343;82;21984;-92
2022/01/10 08:40:55;;;;;;;37.58;12.90;;;;;;;3.53;100.00;100475.64;1707101;82;20838;-93
2022/01/10 08:43:21;;;;;;;37.10;13.30;;;;;;;3.60;100.00;100472.39;1731974;82;21109;-93
2022/01/10 08:45:49;;;;;;;46.73;14.70;;;;;;;3.67;100.00;100474.19;1731947;82;21096;-92
2022/01/10 08:48:22;;;;;;;40.75;13.78;;;;;;;3.72;100.00;100478.36;1731755;82;21080;-92
2022/01/10 08:50:48;;;;;;;34.87;12.87;;;;;;;3.79;100.00;100479.92;1662261;86;21940;-93
2022/01/10 08:53:14;;;;;;;42.62;13.28;;;;;;;3.86;100.00;100479.36;1658628;86;21550;-92
2022/01/10 08:58:08;;;;;;;44.38;13.20;;;;;;;3.92;100.00;100475.53;1613861;88;21142;-92
2022/01/10 09:00:34;;;;;;;42.48;13.22;;;;;;;4.02;100.00;100480.64;1605242;88;21609;-92
2022/01/10 09:03:01;;;;;;;48.28;13.13;;;;;;;3.99;100.00;100461.09;1577798;90;21638;-91
2022/01/10 09:05:29;;;;;;;44.15;13.85;;;;;;;4.20;100.00;100486.53;1577672;90;21042;-91
2022/01/10 09:07:58;;;;;;;46.13;12.58;;;;;;;4.36;100.00;100475.00;1577967;90;21577;-90
2022/01/10 09:10:26;;;;;;;38.48;12.03;;;;;;;4.39;100.00;100470.56;1578595;90;21074;-92
2022/01/10 09:12:56;;;;;;;43.83;12.37;;;;;;;4.41;100.00;100471.97;1578089;90;21637;-91
2022/01/10 09:15:23;;;;;;;41.45;12.30;;;;;;;4.42;100.00;100468.25;1577856;90;21172;-90
2022/01/10 09:17:49;;;;;;;43.42;12.60;;;;;;;4.43;100.00;100470.40;1577971;90;21101;-91
2022/01/10 09:20:15;;;;;;;35.78;11.95;;;;;;;4.49;100.00;100466.84;1550980;90;21041;-91
2022/01/10 09:22:41;;;;;;;33.23;12.05;;;;;;;4.53;100.00;100470.19;1562005;89;21134;-91
2022/01/10 09:25:08;;;;;;;35.10;11.33;;;;;;;4.60;100.00;100465.29;1559068;91;20931;-92
2022/01/10 09:27:37;;;;;;;42.33;11.33;;;;;;;4.57;100.00;100465.73;1575414;91;21218;-91
2022/01/10 09:30:04;;;;;;;36.88;10.40;;;;;;;4.55;100.00;100467.28;1559317;91;21831;-92
2022/01/10 09:32:30;;;;;;;42.03;12.30;;;;;;;4.61;100.00;100470.91;1551280;92;21082;-91
2022/01/10 09:34:56;;;;;;;38.63;11.45;;;;;;;4.65;100.00;100468.11;1551493;91;21046;-91
2022/01/10 09:37:23;;;;;;;42.33;12.07;;;;;;;4.73;100.00;100457.11;1569785;91;21117;-91
2022/01/10 09:39:48;;;;;;;36.13;12.07;;;;;;;4.83;100.00;100467.27;1551249;92;21218;-92
2022/01/10 09:42:15;;;;;;;41.98;12.23;;;;;;;4.83;100.00;100470.75;1563670;91;20944;-91
2022/01/10 09:44:41;;;;;;;36.60;11.65;;;;;;;4.81;100.00;100465.34;1575524;91;21069;-92
2022/01/10 09:47:07;;;;;;;31.23;11.40;;;;;;;4.78;100.00;100462.07;1587423;88;21040;-91
2022/01/10 09:49:33;;;;;;;36.38;12.20;;;;;;;4.77;100.00;100455.11;1624795;87;21551;-92
2022/01/10 09:52:04;;;;;;;34.27;12.05;;;;;;;4.73;100.00;100451.77;1634324;86;21169;-91
2022/01/10 09:54:30;;;;;;;36.40;11.40;;;;;;;4.73;100.00;100451.24;1628205;86;21200;-92
2022/01/10 09:57:04;;;;;;;32.38;10.88;;;;;;;4.67;100.00;100452.14;1664483;86;20988;-91
2022/01/10 09:59:30;;;;;;;45.67;12.53;;;;;;;4.67;100.00;100450.80;1678079;85;21575;-91
2022/01/10 10:01:56;;;;;;;29.45;10.72;;;;;;;4.74;100.00;100454.75;1676485;84;21066;-91
2022/01/10 10:04:24;;;;;;;44.58;13.08;;;;;;;4.86;100.00;100458.81;1676350;85;21238;-92
2022/01/10 10:06:51;;;;;;;40.08;12.00;;;;;;;4.96;100.00;100457.21;1614698;87;21022;-92
2022/01/10 10:09:17;;;;;;;44.88;13.18;;;;;;;5.10;100.00;100458.38;1613576;88;21102;-92
2022/01/10 10:11:48;;;;;;;47.48;13.25;;;;;;;5.15;100.00;100453.19;1586937;89;21582;-93
2022/01/10 10:14:17;;;;;;;45.15;11.55;;;;;;;5.12;100.00;100457.13;1515966;93;21137;-92
2022/01/10 10:16:50;;;;;;;39.63;13.48;;;;;;;5.11;100.00;100450.66;1515826;94;21129;-92
2022/01/10 10:19:20;;;;;;;47.27;13.28;;;;;;;5.07;100.00;100456.98;1515938;94;21519;-92
2022/01/10 10:21:48;;;;;;;44.98;13.35;;;;;;;5.12;100.00;100458.45;1515714;94;21107;-92
2022/01/10 10:24:18;;;;;;;50.00;13.35;;;;;;;5.14;100.00;100458.21;1508030;92;21106;-91
2022/01/10 10:26:44;;;;;;;37.48;12.13;;;;;;;5.06;100.00;100458.52;1500277;95;21061;-92
2022/01/10 10:29:13;;;;;;;39.48;11.75;;;;;;;5.15;100.00;100463.87;1500116;95;21918;-92
2022/01/10 10:31:46;;;;;;;47.03;12.63;;;;;;;5.13;100.00;100456.06;1499568;95;21058;-91
2022/01/10 10:34:27;;;;;;;50.55;12.37;;;;;;;5.21;100.00;100458.42;1498370;94;21029;-92
2022/01/10 10:37:00;;;;;;;46.58;12.73;;;;;;;5.30;100.00;100452.23;1499049;94;21654;-91
2022/01/10 10:39:28;;;;;;;37.78;12.78;;;;;;;5.37;100.00;100460.95;1444915;97;21075;-93
2022/01/10 10:41:59;;;;;;;43.13;12.05;;;;;;;5.36;100.00;100463.87;1462666;97;22393;-93
2022/01/10 10:44:27;;;;;;;44.33;13.28;;;;;;;5.35;100.00;100468.90;1459274;96;21050;-92
2022/01/10 10:46:58;;;;;;;44.38;13.00;;;;;;;5.33;100.00;100458.98;1459661;98;21134;-92
2022/01/10 10:49:39;;;;;;;39.38;12.30;;;;;;;5.41;100.00;100463.98;1458683;96;21153;-92
2022/01/10 10:52:08;;;;;;;45.73;13.45;;;;;;;5.39;100.00;100463.41;1435668;96;21105;-93
2022/01/10 10:54:38;;;;;;;43.48;12.95;;;;;;;5.32;100.00;100455.47;1429884;99;21162;-92
2022/01/10 10:57:07;;;;;;;37.23;12.73;;;;;;;5.37;100.00;100458.81;1427547;99;21634;-92
2022/01/10 10:59:39;;;;;;;51.28;13.48;;;;;;;5.43;100.00;100459.23;1430664;99;21153;-93
2022/01/10 11:02:04;;;;;;;52.25;14.70;;;;;;;5.53;100.00;100462.67;1431393;99;21180;-94
2022/01/10 11:04:31;;;;;;;45.65;14.73;;;;;;;5.46;100.00;100462.25;1429773;99;21138;-92
2022/01/10 11:06:59;;;;;;;47.25;14.85;;;;;;;5.38;100.00;100459.93;1430023;99;21129;-95
2022/01/10 11:09:25;;;;;;;44.63;13.85;;;;;;;5.45;100.00;100469.98;1422830;95;21624;-92
2022/01/10 11:11:52;;;;;;;46.37;14.30;;;;;;;5.45;100.00;100461.16;1530228;93;21220;-92
2022/01/10 11:14:22;;;;;;;37.78;13.60;;;;;;;5.36;100.00;100463.34;1541636;92;21112;-93
2022/01/10 11:16:52;;;;;;;37.50;12.63;;;;;;;5.35;100.00;100461.70;1541543;93;21152;-92
2022/01/10 11:19:26;;;;;;;45.95;14.60;;;;;;;5.34;100.00;100464.61;1559004;90;21337;-93
2022/01/10 11:22:03;;;;;;;45.83;14.80;;;;;;;5.34;100.00;100465.42;1565708;91;21150;-92
2022/01/10 11:24:50;;;;;;;53.20;16.45;;;;;;;5.30;100.00;100463.45;1555047;90;21534;-93
2022/01/10 11:27:47;;;;;;;56.50;16.95;;;;;;;5.19;100.00;100465.03;1591839;90;21568;-93
2022/01/10 11:30:39;;;;;;;58.98;17.70;;;;;;;5.09;100.00;100468.75;1592700;90;21047;-93